createdAt,value
2018-07-06T00:00:05.672Z,26.4
2018-07-06T00:10:04.896Z,26.3
2018-07-06T00:20:04.132Z,26.3
2018-07-06T00:30:03.362Z,26.3
2018-07-06T00:40:02.592Z,26.3
2018-07-06T00:50:01.823Z,26.3
2018-07-06T01:00:01.056Z,26.3
2018-07-06T01:10:00.287Z,26.3
2018-07-06T01:19:59.525Z,26.3
2018-07-06T01:29:58.752Z,26.3
2018-07-06T01:39:57.983Z,26.3
2018-07-06T01:49:57.215Z,26.3
2018-07-06T01:59:56.455Z,26.3
2018-07-06T02:09:55.731Z,26.3
2018-07-06T02:19:54.910Z,26.3
2018-07-06T02:29:54.141Z,26.3
2018-07-06T02:39:53.377Z,26.2
2018-07-06T02:49:52.606Z,26.2
2018-07-06T02:59:51.858Z,26.2
2018-07-06T03:09:51.069Z,26.3
2018-07-06T03:19:50.305Z,26.3
2018-07-06T03:29:49.539Z,26.3
2018-07-06T03:39:48.769Z,26.3
2018-07-06T03:49:48.004Z,26.3
2018-07-06T03:59:47.237Z,26.3
2018-07-06T04:09:46.480Z,26.3
2018-07-06T04:19:45.709Z,26.3
2018-07-06T04:29:44.946Z,26.3
2018-07-06T04:39:44.174Z,26.3
2018-07-06T04:49:43.408Z,26.3
2018-07-06T04:59:42.689Z,26.3
2018-07-06T05:09:41.874Z,26.2
2018-07-06T05:19:41.107Z,26.3
2018-07-06T05:29:40.341Z,26.2
2018-07-06T05:39:39.578Z,26.3
2018-07-06T05:49:38.807Z,26.3
2018-07-06T05:59:38.040Z,26.3
2018-07-06T06:09:37.271Z,26.3
2018-07-06T06:19:36.504Z,26.3
2018-07-06T06:29:35.736Z,26.3
2018-07-06T06:39:34.969Z,26.3
2018-07-06T06:49:34.202Z,26.3
2018-07-06T06:59:33.484Z,26.3
2018-07-06T07:09:32.666Z,26.3
2018-07-06T07:19:31.901Z,26.4
2018-07-06T07:29:31.133Z,26.4
2018-07-06T07:39:30.367Z,26.4
2018-07-06T07:49:29.603Z,26.4
2018-07-06T07:59:28.832Z,26.4
2018-07-06T08:09:28.067Z,26.4
2018-07-06T08:19:27.348Z,26.4
2018-07-06T08:29:26.529Z,26.4
2018-07-06T08:39:25.764Z,26.4
2018-07-06T08:49:24.995Z,26.4
2018-07-06T08:59:24.221Z,26.4
2018-07-06T09:09:23.528Z,26.4
2018-07-06T09:19:22.865Z,26.5
2018-07-06T09:29:21.972Z,26.5
2018-07-06T09:39:21.159Z,26.5
2018-07-06T09:49:20.388Z,26.5
2018-07-06T09:59:19.620Z,26.6
2018-07-06T10:09:18.852Z,26.5
2018-07-06T10:19:18.088Z,26.6
2018-07-06T10:29:17.323Z,26.6
2018-07-06T10:39:16.559Z,26.6
2018-07-06T10:49:15.795Z,26.6
2018-07-06T10:59:15.093Z,26.6
2018-07-06T11:09:14.263Z,26.6
2018-07-06T11:19:13.608Z,26.7
2018-07-06T11:29:12.776Z,26.7
2018-07-06T11:39:11.966Z,26.7
2018-07-06T11:49:11.200Z,26.7
2018-07-06T11:59:10.434Z,26.7
2018-07-06T12:09:09.674Z,26.7
2018-07-06T12:19:08.905Z,26.7
2018-07-06T12:29:08.181Z,26.8
2018-07-06T12:39:07.371Z,26.8
2018-07-06T12:49:06.605Z,26.8
2018-07-06T12:59:05.839Z,26.8
2018-07-06T13:09:05.074Z,26.9
2018-07-06T13:19:04.310Z,26.8
2018-07-06T13:29:03.549Z,26.9
2018-07-06T13:39:02.804Z,26.9
2018-07-06T13:49:02.010Z,26.9
2018-07-06T13:59:01.298Z,26.9
2018-07-06T14:09:00.482Z,26.9
2018-07-06T14:18:59.711Z,26.9
2018-07-06T14:28:58.996Z,26.9
2018-07-06T14:38:58.181Z,26.9
2018-07-06T14:48:57.415Z,26.9
2018-07-06T14:58:56.646Z,26.9
2018-07-06T15:08:55.969Z,26.9
2018-07-06T15:18:55.118Z,26.9
2018-07-06T15:28:54.363Z,27
2018-07-06T15:38:53.591Z,27
2018-07-06T15:48:52.835Z,27
2018-07-06T15:58:52.065Z,26.8
2018-07-06T16:08:51.303Z,26.8
2018-07-06T16:18:50.543Z,26.8
2018-07-06T16:28:49.775Z,26.8
2018-07-06T16:38:49.017Z,26.8
2018-07-06T16:48:48.259Z,26.8
2018-07-06T16:58:47.492Z,26.7
2018-07-06T17:08:46.728Z,26.7
2018-07-06T17:18:45.976Z,26.7
2018-07-06T17:28:45.202Z,26.6
2018-07-06T17:38:44.440Z,26.6
2018-07-06T17:48:43.673Z,26.5
2018-07-06T17:58:42.911Z,26.5
2018-07-06T18:08:42.149Z,26.6
2018-07-06T18:18:41.387Z,26.5
2018-07-06T18:28:40.628Z,26.5
2018-07-06T18:38:39.865Z,26.4
2018-07-06T18:48:39.108Z,26.5
2018-07-06T18:58:38.345Z,26.6
2018-07-06T19:08:37.580Z,26.6
2018-07-06T19:18:36.819Z,26.7
2018-07-06T19:28:36.059Z,26.8
2018-07-06T19:38:35.297Z,26.8
2018-07-06T19:48:34.589Z,26.8
2018-07-06T19:58:33.778Z,26.9
2018-07-06T20:08:33.014Z,26.9
2018-07-06T20:18:32.255Z,26.9
2018-07-06T20:28:31.487Z,26.9
2018-07-06T20:38:30.724Z,26.9
2018-07-06T20:48:29.960Z,26.9
2018-07-06T20:58:29.197Z,26.9
2018-07-06T21:08:28.436Z,27
2018-07-06T21:18:27.671Z,27
2018-07-06T21:28:26.907Z,27
2018-07-06T21:38:26.141Z,27
2018-07-06T21:48:25.385Z,27
2018-07-06T21:58:24.613Z,27
2018-07-06T22:08:23.851Z,27.1
2018-07-06T22:18:23.090Z,27.1
2018-07-06T22:28:22.374Z,27.1
2018-07-06T22:38:21.558Z,27.1
2018-07-06T22:48:20.799Z,27.1
2018-07-06T22:58:20.071Z,27.1
2018-07-06T23:08:19.264Z,27.1
2018-07-06T23:18:18.499Z,27.1
2018-07-06T23:28:17.738Z,27.1
2018-07-06T23:38:17.030Z,27.1
2018-07-06T23:48:16.206Z,27.1
2018-07-06T23:58:15.441Z,27.1
